createdAt,value
2022-08-25T00:01:32.717Z,16.80
2022-08-25T00:04:36.673Z,16.80
2022-08-25T00:07:37.564Z,16.80
2022-08-25T00:10:38.508Z,16.70
2022-08-25T00:13:39.588Z,16.60
2022-08-25T00:16:41.473Z,16.50
2022-08-25T00:19:47.473Z,16.40
2022-08-25T00:22:48.619Z,16.40
2022-08-25T00:25:49.538Z,16.30
2022-08-25T00:28:50.490Z,16.40
2022-08-25T00:31:54.497Z,16.40
2022-08-25T00:34:55.562Z,16.40
2022-08-25T00:37:56.523Z,16.40
2022-08-25T00:41:12.561Z,16.50
2022-08-25T00:44:15.504Z,16.40
2022-08-25T00:47:11.615Z,16.50
2022-08-25T00:50:08.548Z,16.40
2022-08-25T00:53:12.573Z,16.50
2022-08-25T00:56:13.639Z,16.40
2022-08-25T00:59:16.571Z,16.40
2022-08-25T01:02:19.514Z,16.50
2022-08-25T01:05:21.547Z,16.50
2022-08-25T01:08:23.522Z,16.30
2022-08-25T01:11:25.693Z,16.30
2022-08-25T01:14:31.561Z,16.20
2022-08-25T01:17:34.547Z,16.10
2022-08-25T01:20:38.508Z,16.00
2022-08-25T01:23:40.571Z,15.90
2022-08-25T01:26:46.509Z,15.90
2022-08-25T01:29:48.497Z,15.80
2022-08-25T01:32:49.560Z,15.80
2022-08-25T01:35:50.499Z,15.80
2022-08-25T01:38:51.540Z,15.80
2022-08-25T01:42:21.538Z,15.70
2022-08-25T01:45:23.538Z,15.70
2022-08-25T01:48:25.503Z,15.60
2022-08-25T01:51:29.529Z,15.60
2022-08-25T01:54:30.511Z,15.60
2022-08-25T01:57:31.560Z,15.50
2022-08-25T02:00:33.581Z,15.50
2022-08-25T02:03:35.511Z,15.40
2022-08-25T02:06:45.533Z,15.40
2022-08-25T02:09:47.516Z,15.40
2022-08-25T02:12:48.583Z,15.30
2022-08-25T02:15:54.678Z,15.40
2022-08-25T02:18:55.603Z,15.30
2022-08-25T02:21:56.598Z,15.30
2022-08-25T02:24:57.699Z,15.30
2022-08-25T02:27:58.590Z,15.30
2022-08-25T02:31:01.367Z,15.30
2022-08-25T02:34:03.635Z,15.30
2022-08-25T02:37:04.609Z,15.30
2022-08-25T02:40:05.777Z,15.30
2022-08-25T02:43:06.632Z,15.30
2022-08-25T02:46:08.618Z,15.30
2022-08-25T02:49:10.536Z,15.30
2022-08-25T02:52:11.561Z,15.30
2022-08-25T02:55:12.540Z,15.30
2022-08-25T02:58:13.556Z,15.30
2022-08-25T03:01:14.754Z,15.30
2022-08-25T03:04:16.719Z,15.30
2022-08-25T03:07:17.580Z,15.30
2022-08-25T03:10:25.656Z,15.30
2022-08-25T03:13:26.616Z,15.30
2022-08-25T03:16:27.788Z,15.30
2022-08-25T03:19:28.568Z,15.30
2022-08-25T03:22:29.644Z,15.20
2022-08-25T03:25:48.741Z,15.20
2022-08-25T03:28:49.672Z,15.20
2022-08-25T03:31:51.644Z,15.20
2022-08-25T03:34:52.696Z,15.20
2022-08-25T03:37:53.776Z,15.20
2022-08-25T03:40:54.575Z,15.20
2022-08-25T03:43:56.589Z,15.20
2022-08-25T03:47:01.632Z,15.20
2022-08-25T03:50:02.597Z,15.10
2022-08-25T03:53:12.763Z,15.10
2022-08-25T03:56:13.612Z,15.10
2022-08-25T03:59:17.598Z,15.10
2022-08-25T04:02:19.705Z,15.00
2022-08-25T04:05:21.773Z,15.00
2022-08-25T04:08:22.669Z,15.00
2022-08-25T04:11:29.607Z,14.90
2022-08-25T04:14:30.708Z,14.90
2022-08-25T04:17:31.617Z,14.90
2022-08-25T04:20:32.603Z,14.90
2022-08-25T04:23:33.786Z,14.90
2022-08-25T04:26:39.771Z,14.90
2022-08-25T04:29:40.693Z,14.80
2022-08-25T04:32:41.627Z,14.80
2022-08-25T04:35:42.709Z,14.80
2022-08-25T04:38:43.712Z,14.80
2022-08-25T04:41:44.622Z,14.80
2022-08-25T04:44:46.693Z,14.80
2022-08-25T04:47:55.068Z,14.80
2022-08-25T04:50:55.688Z,14.80
2022-08-25T04:53:57.661Z,14.80
2022-08-25T04:56:59.018Z,14.80
2022-08-25T04:59:59.805Z,14.80
2022-08-25T05:03:00.802Z,14.80
2022-08-25T05:06:01.626Z,14.90
2022-08-25T05:09:02.728Z,14.90
2022-08-25T05:12:03.647Z,14.90
2022-08-25T05:15:26.678Z,14.90
2022-08-25T05:18:27.633Z,14.90
2022-08-25T05:21:31.833Z,15.00
2022-08-25T05:24:34.656Z,14.90
2022-08-25T05:27:35.729Z,14.90
2022-08-25T05:30:36.718Z,15.00
2022-08-25T05:33:37.656Z,15.00
2022-08-25T05:36:40.708Z,15.00
2022-08-25T05:39:41.862Z,15.10
2022-08-25T05:42:42.691Z,15.10
2022-08-25T05:45:43.779Z,15.10
2022-08-25T05:48:44.663Z,15.10
2022-08-25T05:51:45.706Z,15.10
2022-08-25T05:54:46.677Z,15.10
2022-08-25T05:57:48.734Z,15.20
2022-08-25T06:00:51.823Z,15.20
2022-08-25T06:03:52.740Z,15.20
2022-08-25T06:06:53.737Z,15.20
2022-08-25T06:09:56.681Z,15.20
2022-08-25T06:12:58.726Z,15.20
2022-08-25T06:15:59.798Z,15.30
2022-08-25T06:19:01.854Z,15.30
2022-08-25T06:22:03.717Z,15.20
2022-08-25T06:25:04.709Z,15.30
2022-08-25T06:28:07.752Z,15.20
2022-08-25T06:31:14.787Z,15.20
2022-08-25T06:34:15.704Z,15.30
2022-08-25T06:37:16.730Z,15.30
2022-08-25T06:40:19.787Z,15.20
2022-08-25T06:43:20.750Z,15.30
2022-08-25T06:46:42.879Z,15.30
2022-08-25T06:49:43.749Z,15.30
2022-08-25T06:52:45.768Z,15.30
2022-08-25T06:55:46.695Z,15.30
2022-08-25T06:58:47.717Z,15.30
2022-08-25T07:01:50.339Z,15.40
2022-08-25T07:04:53.708Z,15.40
2022-08-25T07:07:54.805Z,15.40
2022-08-25T07:10:55.872Z,15.40
2022-08-25T07:13:57.782Z,15.40
2022-08-25T07:16:58.802Z,15.50
2022-08-25T07:19:59.738Z,15.50
2022-08-25T07:23:00.749Z,15.60
2022-08-25T07:26:11.529Z,15.60
2022-08-25T07:29:31.751Z,15.60
2022-08-25T07:32:33.728Z,15.60
2022-08-25T07:35:37.358Z,15.60
2022-08-25T07:38:38.867Z,15.60
2022-08-25T07:41:40.718Z,15.60
2022-08-25T07:44:41.731Z,15.60
2022-08-25T07:47:43.744Z,15.60
2022-08-25T07:50:45.737Z,15.60
2022-08-25T07:53:46.723Z,15.60
2022-08-25T07:56:50.900Z,15.60
2022-08-25T07:59:55.743Z,15.60
2022-08-25T08:03:05.936Z,15.60
2022-08-25T08:06:08.794Z,15.60
2022-08-25T08:09:11.811Z,15.60
2022-08-25T08:12:12.807Z,15.60
2022-08-25T08:15:16.747Z,15.70
2022-08-25T08:18:18.814Z,15.70
2022-08-25T08:21:34.784Z,15.70
2022-08-25T08:24:44.674Z,15.70
2022-08-25T08:27:55.775Z,15.70
2022-08-25T08:30:56.891Z,15.80
2022-08-25T08:33:59.780Z,15.80
2022-08-25T08:37:00.801Z,15.80
2022-08-25T08:40:03.361Z,15.90
2022-08-25T08:43:18.705Z,15.90
2022-08-25T08:46:20.793Z,15.90
2022-08-25T08:49:39.907Z,16.00
2022-08-25T08:52:49.819Z,16.00
2022-08-25T08:56:01.779Z,16.10
2022-08-25T08:59:06.467Z,16.10
2022-08-25T09:02:13.823Z,16.10
2022-08-25T09:05:23.799Z,16.20
2022-08-25T09:08:26.813Z,16.30
2022-08-25T09:12:07.800Z,16.30
2022-08-25T09:15:20.861Z,16.30
2022-08-25T09:18:50.890Z,16.30
2022-08-25T09:22:36.901Z,16.40
2022-08-25T09:25:53.355Z,16.40
2022-08-25T09:29:01.814Z,16.40
2022-08-25T09:32:02.840Z,16.50
2022-08-25T09:35:05.929Z,16.50
2022-08-25T09:38:15.843Z,16.50
2022-08-25T09:41:17.829Z,16.60
2022-08-25T09:44:31.834Z,16.60
2022-08-25T09:47:38.877Z,16.70
2022-08-25T09:50:46.860Z,16.70
2022-08-25T09:53:48.837Z,16.70
2022-08-25T09:57:08.586Z,16.70
2022-08-25T10:00:09.884Z,16.70
2022-08-25T10:03:37.018Z,16.70
2022-08-25T10:06:40.847Z,16.60
2022-08-25T10:09:47.881Z,16.60
2022-08-25T10:12:51.173Z,16.60
2022-08-25T10:15:52.892Z,16.70
2022-08-25T10:18:53.936Z,16.70
2022-08-25T10:21:56.852Z,16.70
2022-08-25T10:24:57.908Z,16.70
2022-08-25T10:28:05.217Z,16.80
2022-08-25T10:31:30.649Z,16.80
2022-08-25T10:34:59.865Z,16.80
2022-08-25T10:38:36.081Z,16.80
2022-08-25T10:41:53.478Z,16.80
2022-08-25T10:45:33.865Z,16.80
2022-08-25T10:48:49.937Z,17.00
2022-08-25T10:52:09.861Z,17.10
2022-08-25T10:55:33.870Z,17.10
2022-08-25T10:59:14.910Z,17.30
2022-08-25T11:02:25.045Z,17.50
2022-08-25T11:05:37.892Z,17.50
2022-08-25T11:08:52.935Z,17.70
2022-08-25T11:12:18.009Z,17.80
2022-08-25T11:15:25.885Z,17.80
2022-08-25T11:18:21.964Z,17.70
2022-08-25T11:21:35.975Z,17.60
2022-08-25T11:24:55.949Z,17.70
2022-08-25T11:28:19.866Z,17.80
2022-08-25T11:31:23.979Z,17.90
2022-08-25T11:34:26.892Z,18.10
2022-08-25T11:37:41.092Z,18.30
2022-08-25T11:41:00.967Z,18.50
2022-08-25T11:44:32.948Z,18.70
2022-08-25T11:47:57.992Z,18.90
2022-08-25T11:51:31.029Z,19.10
2022-08-25T11:54:35.105Z,19.30
2022-08-25T11:57:38.936Z,19.30
2022-08-25T12:00:50.918Z,19.40
2022-08-25T12:03:55.088Z,19.40
2022-08-25T12:07:20.891Z,19.50
2022-08-25T12:10:25.910Z,19.60
2022-08-25T12:13:59.908Z,19.70
2022-08-25T12:17:12.164Z,19.70
2022-08-25T12:20:13.977Z,19.80
2022-08-25T12:23:16.935Z,19.80
2022-08-25T12:26:43.179Z,20.00
2022-08-25T12:29:59.014Z,20.00
2022-08-25T12:33:38.983Z,20.10
2022-08-25T12:36:47.957Z,20.10
2022-08-25T12:40:00.065Z,19.70
2022-08-25T12:43:01.028Z,19.60
2022-08-25T12:46:08.003Z,19.80
2022-08-25T12:49:12.009Z,20.00
2022-08-25T12:52:28.979Z,20.00
2022-08-25T12:55:31.981Z,20.10
2022-08-25T12:58:58.462Z,20.10
2022-08-25T13:02:07.065Z,20.20
2022-08-25T13:05:16.945Z,20.30
2022-08-25T13:08:37.104Z,20.20
2022-08-25T13:12:13.944Z,20.00
2022-08-25T13:15:14.994Z,19.90
2022-08-25T13:18:30.034Z,20.20
2022-08-25T13:21:42.006Z,20.30
2022-08-25T13:24:50.788Z,20.40
2022-08-25T13:27:52.975Z,20.70
2022-08-25T13:30:54.020Z,21.00
2022-08-25T13:34:07.024Z,21.10
2022-08-25T13:37:27.119Z,21.10
2022-08-25T13:40:39.051Z,21.30
2022-08-25T13:43:44.067Z,21.60
2022-08-25T13:46:44.960Z,21.60
2022-08-25T13:49:46.048Z,21.70
2022-08-25T13:52:47.050Z,21.80
2022-08-25T13:55:59.094Z,21.80
2022-08-25T13:59:00.005Z,21.90
2022-08-25T14:02:03.290Z,22.00
2022-08-25T14:05:05.980Z,22.20
2022-08-25T14:08:23.535Z,22.50
2022-08-25T14:11:41.029Z,22.70
2022-08-25T14:14:42.231Z,22.70
2022-08-25T14:17:48.350Z,22.70
2022-08-25T14:20:57.018Z,22.80
2022-08-25T14:23:58.029Z,22.90
2022-08-25T14:27:02.071Z,23.00
2022-08-25T14:30:11.013Z,22.80
2022-08-25T14:33:12.065Z,22.60
2022-08-25T14:36:15.007Z,22.30
2022-08-25T14:39:23.090Z,22.00
2022-08-25T14:42:26.214Z,21.90
2022-08-25T14:45:32.102Z,22.00
2022-08-25T14:48:44.041Z,21.80
2022-08-25T14:51:46.069Z,21.90
2022-08-25T14:54:50.081Z,21.90
2022-08-25T14:57:51.127Z,21.80
2022-08-25T15:00:58.128Z,21.70
2022-08-25T15:04:02.090Z,21.80
2022-08-25T15:07:08.041Z,22.10
2022-08-25T15:10:09.073Z,22.30
2022-08-25T15:13:14.100Z,22.40
2022-08-25T15:16:15.084Z,22.30
2022-08-25T15:19:24.294Z,22.10
2022-08-25T15:22:25.239Z,22.20
2022-08-25T15:25:29.165Z,22.30
2022-08-25T15:28:34.084Z,22.40
2022-08-25T15:31:35.234Z,22.40
2022-08-25T15:34:41.659Z,22.40
2022-08-25T15:37:43.100Z,22.30
2022-08-25T15:40:46.369Z,22.30
2022-08-25T15:43:47.052Z,22.20
2022-08-25T15:46:54.105Z,22.20
2022-08-25T15:49:57.148Z,22.30
2022-08-25T15:52:58.124Z,22.50
2022-08-25T15:56:00.618Z,22.40
2022-08-25T15:59:08.522Z,22.50
2022-08-25T16:02:14.947Z,22.60
2022-08-25T16:05:17.314Z,22.70
2022-08-25T16:08:19.604Z,22.80
2022-08-25T16:11:29.152Z,22.80
2022-08-25T16:14:31.096Z,22.80
2022-08-25T16:17:33.144Z,22.90
2022-08-25T16:20:34.147Z,22.80
2022-08-25T16:23:35.150Z,22.90
2022-08-25T16:26:36.153Z,22.70
2022-08-25T16:29:38.131Z,22.40
2022-08-25T16:32:39.164Z,22.30
2022-08-25T16:35:40.779Z,22.10
2022-08-25T16:38:41.084Z,22.10
2022-08-25T16:41:44.191Z,22.10
2022-08-25T16:44:46.091Z,22.00
2022-08-25T16:47:50.104Z,22.10
2022-08-25T16:50:53.131Z,22.30
2022-08-25T16:54:13.168Z,22.30
2022-08-25T16:57:15.184Z,22.10
2022-08-25T17:00:19.280Z,22.10
2022-08-25T17:03:20.132Z,22.10
2022-08-25T17:06:22.197Z,22.10
2022-08-25T17:09:26.200Z,22.10
2022-08-25T17:12:27.195Z,22.20
2022-08-25T17:15:30.168Z,22.30
2022-08-25T17:18:31.174Z,22.40
2022-08-25T17:21:35.280Z,22.50
2022-08-25T17:25:00.704Z,22.50
2022-08-25T17:28:02.145Z,22.40
2022-08-25T17:31:03.152Z,22.10
2022-08-25T17:34:04.203Z,21.90
2022-08-25T17:37:06.316Z,21.50
2022-08-25T17:40:07.180Z,21.30
2022-08-25T17:43:09.248Z,21.50
2022-08-25T17:46:10.230Z,21.70
2022-08-25T17:49:11.139Z,21.60
2022-08-25T17:52:12.180Z,21.80
2022-08-25T17:55:13.549Z,22.10
2022-08-25T17:58:16.287Z,22.10
2022-08-25T18:01:19.359Z,22.30
2022-08-25T18:04:27.234Z,22.40
2022-08-25T18:07:30.149Z,22.30
2022-08-25T18:10:32.170Z,22.30
2022-08-25T18:13:33.287Z,22.20
2022-08-25T18:16:35.198Z,22.20
2022-08-25T18:19:36.203Z,22.20
2022-08-25T18:22:37.247Z,22.20
2022-08-25T18:25:41.857Z,22.20
2022-08-25T18:28:44.179Z,21.90
2022-08-25T18:31:47.365Z,21.30
2022-08-25T18:34:51.247Z,20.50
2022-08-25T18:38:11.164Z,19.90
2022-08-25T18:41:18.251Z,19.30
2022-08-25T18:44:19.163Z,18.80
2022-08-25T18:47:20.210Z,18.60
2022-08-25T18:50:23.249Z,18.30
2022-08-25T18:53:30.621Z,18.20
2022-08-25T18:56:38.384Z,18.10
2022-08-25T18:59:39.186Z,17.90
2022-08-25T19:02:40.433Z,17.70
2022-08-25T19:05:57.284Z,17.60
2022-08-25T19:08:58.251Z,17.40
2022-08-25T19:11:59.208Z,17.30
2022-08-25T19:15:00.344Z,17.10
2022-08-25T19:18:02.189Z,16.90
2022-08-25T19:24:32.440Z,16.50
2022-08-25T19:27:33.579Z,16.30
2022-08-25T19:30:43.713Z,16.10
2022-08-25T19:37:05.303Z,15.80
2022-08-25T19:53:56.386Z,15.20
2022-08-25T19:56:59.313Z,15.10
2022-08-25T20:00:14.296Z,15.00
2022-08-25T20:03:19.533Z,14.90
2022-08-25T20:06:20.301Z,14.80
2022-08-25T20:09:39.337Z,14.80
2022-08-25T20:12:42.305Z,14.70
2022-08-25T20:15:43.359Z,14.60
2022-08-25T20:18:44.338Z,14.40
2022-08-25T20:21:48.329Z,14.40
2022-08-25T20:24:57.902Z,14.30
2022-08-25T20:28:05.453Z,14.30
2022-08-25T20:31:13.387Z,14.10
2022-08-25T20:34:14.332Z,14.10
2022-08-25T20:37:15.293Z,14.00
2022-08-25T20:40:17.371Z,14.00
2022-08-25T20:43:21.296Z,13.90
2022-08-25T20:46:16.341Z,13.80
2022-08-25T20:49:17.273Z,13.80
2022-08-25T20:52:20.297Z,13.70
2022-08-25T20:55:22.287Z,13.60
2022-08-25T20:58:23.305Z,13.50
2022-08-25T21:01:44.400Z,13.40
2022-08-25T21:04:48.967Z,13.30
2022-08-25T21:07:51.268Z,13.20
2022-08-25T21:10:53.323Z,13.10
2022-08-25T21:13:55.280Z,13.00
2022-08-25T21:17:02.371Z,12.90
2022-08-25T21:20:04.356Z,12.80
2022-08-25T21:23:06.066Z,12.80
2022-08-25T21:26:07.393Z,12.80
2022-08-25T21:29:15.207Z,12.80
2022-08-25T21:32:16.576Z,12.80
2022-08-25T21:35:19.301Z,12.70
2022-08-25T21:38:20.337Z,12.60
2022-08-25T21:41:23.313Z,12.60
2022-08-25T21:44:26.406Z,12.40
2022-08-25T21:47:27.281Z,12.30
2022-08-25T21:50:28.320Z,12.30
2022-08-25T21:53:29.544Z,12.20
2022-08-25T21:56:33.364Z,12.20
2022-08-25T21:59:40.398Z,12.20
2022-08-25T22:02:43.814Z,12.10
2022-08-25T22:05:46.379Z,12.10
2022-08-25T22:08:51.359Z,12.00
2022-08-25T22:11:54.712Z,12.00
2022-08-25T22:14:55.312Z,11.90
2022-08-25T22:17:56.325Z,11.80
2022-08-25T22:20:57.338Z,11.70
2022-08-25T22:23:58.353Z,11.50
2022-08-25T22:26:59.422Z,11.40
2022-08-25T22:30:01.377Z,11.30
2022-08-25T22:33:02.363Z,11.30
2022-08-25T22:36:03.562Z,11.20
2022-08-25T22:39:05.542Z,11.10
2022-08-25T22:42:06.336Z,11.00
2022-08-25T22:45:07.312Z,10.90
2022-08-25T22:48:08.437Z,10.90
2022-08-25T22:51:09.368Z,10.80
2022-08-25T22:54:12.364Z,10.80
2022-08-25T22:57:14.333Z,10.70
2022-08-25T23:00:15.307Z,10.60
2022-08-25T23:03:16.414Z,10.50
2022-08-25T23:06:22.157Z,10.40
2022-08-25T23:09:25.399Z,10.30
2022-08-25T23:12:26.324Z,10.30
2022-08-25T23:15:27.394Z,10.20
2022-08-25T23:18:29.384Z,10.20
2022-08-25T23:21:49.387Z,10.20
2022-08-25T23:24:53.363Z,10.20
2022-08-25T23:27:54.380Z,10.20
2022-08-25T23:30:59.298Z,10.20
2022-08-25T23:34:00.388Z,10.20
2022-08-25T23:37:03.413Z,10.10
2022-08-25T23:40:04.469Z,10.10
2022-08-25T23:43:05.491Z,10.00
2022-08-25T23:46:00.543Z,10.00
2022-08-25T23:48:57.519Z,9.90
2022-08-25T23:52:06.489Z,9.90
2022-08-25T23:55:07.452Z,9.90
2022-08-25T23:58:08.457Z,9.80
